OPGD Airport Information

Runway Information
Runway 06 Length 4960 ft width 75 ft
Elevation 96 ft Threshold 0 ft Heading 63
Runway 24 Length 4960 ft Width 75 ft
Elevation 96 ft Threshold 0 ft Heading 243
Airport Frequencies
Type TWR Name TWR Frequency 122.5 MHZ
Airport Navaids
Type NDB Name Gwadar Frequency 303 KHZ
Airport Weather Information & NOTAM
ADDS - METARS form results

(1119 UTC 20 April 2019)
Data provider http://aviationweather.gov/metar/data/
 
Forecast for: OPGD (GWADAR , PK)
Text: TAF OPGD 200930Z 2012/2112 24010G20KT 6000 NSC
Forecast period: 1200 UTC 20 April 2019 to 1200 UTC 21 April 2019
Forecast type: FROM: standard forecast or significant change
Winds: from the WSW (240 degrees) at 12 MPH (10 knots; 5.1 m/s)
gusting to 23 MPH (20 knots; 10.3 m/s)
Visibility: 4 miles (6 km)
Ceiling: unknown
Clouds: missing
Weather: no significant weather forecast for this period
Text: TEMPO 2100/2104 VRB03KT 2500 BR FEW030
Forecast period: 0000 to 0400 UTC 21 April 2019
Forecast type: TEMPORARY: The following changes expected for less than half the time period
Winds: variable direction winds at 3 MPH (3 knots; 1.5 m/s)
Visibility: 1.55 miles (2.49 km)
Ceiling: at least 12,000 feet AGL
Clouds: few clouds at 3000 feet AGL
Weather: BR  (mist)